Time;durP1;ratioP1;P1;durP2;ratioP2;P2;SDS_P1;SDS_P2;PMS_P1;PMS_P2;Temp;Humidity;BMP_temperature;BMP_pressure;BME280_temperature;BME280_humidity;BME280_pressure;Samples;Min_cycle;Max_cycle;Signal;HPM_P1;HPM_P2
2022/10/28 00:02:17;;;;;;;7.47;5.23;;;;;;;13.24;100.00;101780.63;5037770;28;20175;-79
2022/10/28 00:04:42;;;;;;;6.47;5.03;;;;;;;13.59;100.00;101875.06;5041466;28;20452;-80
2022/10/28 00:07:08;;;;;;;7.87;5.10;;;;;;;13.61;100.00;101856.84;5042262;28;20248;-78
2022/10/28 00:09:33;;;;;;;7.73;5.00;;;;;;;12.56;100.00;101702.09;5042439;28;20241;-79
2022/10/28 00:11:59;;;;;;;9.23;5.03;;;;;;;13.32;100.00;101838.97;5043602;28;20247;-78
2022/10/28 00:14:24;;;;;;;14.13;5.80;;;;;;;13.78;100.00;101906.78;5039967;28;20187;-79
2022/10/28 00:16:50;;;;;;;7.03;4.67;;;;;;;13.85;100.00;101876.34;5039654;28;20301;-79
2022/10/28 00:19:16;;;;;;;11.80;5.43;;;;;;;12.74;100.00;101698.94;5041125;28;20743;-79
2022/10/28 00:21:43;;;;;;;11.00;6.63;;;;;;;13.32;100.00;101807.47;5044731;28;20628;-78
2022/10/28 00:24:10;;;;;;;11.07;5.97;;;;;;;12.75;100.00;101703.28;5041444;28;20191;-79
2022/10/28 00:26:40;;;;;;;15.97;5.97;;;;;;;13.68;100.00;101878.47;5045382;28;20461;-79
2022/10/28 00:29:08;;;;;;;8.60;5.60;;;;;;;12.63;100.00;101710.22;5046467;28;20431;-79
2022/10/28 00:31:34;;;;;;;6.13;4.87;;;;;;;13.81;100.00;101891.25;5041816;28;20465;-79
2022/10/28 00:34:02;;;;;;;8.40;5.30;;;;;;;14.15;100.00;101941.75;5042673;28;20444;-79
2022/10/28 00:36:33;;;;;;;14.70;6.33;;;;;;;14.00;100.00;101934.56;5039036;28;20847;-79
2022/10/28 00:39:00;;;;;;;7.30;5.50;;;;;;;13.77;100.00;101864.69;5042425;28;20460;-78
2022/10/28 00:41:30;;;;;;;12.30;6.20;;;;;;;14.36;100.00;101968.69;5040252;28;20438;-80
2022/10/28 00:44:00;;;;;;;9.10;5.13;;;;;;;13.55;100.00;101863.03;5050617;28;20450;-73
2022/10/28 00:46:41;;;;;;;9.63;6.20;;;;;;;12.36;100.00;101641.84;5036026;28;20466;-81
2022/10/28 00:49:21;;;;;;;11.13;6.20;;;;;;;13.16;100.00;101788.81;5041631;28;20533;-81
2022/10/28 00:51:51;;;;;;;8.90;6.17;;;;;;;14.46;100.00;101992.63;5060375;28;20543;-79
2022/10/28 00:54:17;;;;;;;8.20;5.40;;;;;;;13.12;100.00;101780.31;5045755;28;20466;-79
2022/10/28 00:56:45;;;;;;;11.03;6.40;;;;;;;13.37;100.00;101825.75;5043219;28;20477;-81
2022/10/28 00:59:20;;;;;;;8.80;5.87;;;;;;;12.32;100.00;101625.22;5045736;28;20456;-81
2022/10/28 01:01:46;;;;;;;8.93;5.87;;;;;;;13.28;100.00;101792.72;5045716;28;20424;-82
2022/10/28 01:04:12;;;;;;;9.20;7.00;;;;;;;12.41;100.00;101613.34;5042411;28;20529;-81
2022/10/28 01:06:38;;;;;;;7.37;6.03;;;;;;;12.60;100.00;101660.28;5042708;28;20466;-80
2022/10/28 01:09:03;;;;;;;10.27;5.93;;;;;;;13.40;100.00;101795.72;5062602;28;20997;-81
2022/10/28 01:11:45;;;;;;;6.40;5.63;;;;;;;13.78;100.00;101825.06;5045778;28;20662;-80
2022/10/28 01:14:19;;;;;;;9.30;5.43;;;;;;;12.53;100.00;101659.41;5058835;28;20182;-80
2022/10/28 01:17:11;;;;;;;9.13;5.33;;;;;;;14.37;100.00;101919.06;5043985;28;20467;-80
2022/10/28 01:20:18;;;;;;;8.80;5.70;;;;;;;14.33;100.00;101909.69;5046027;28;20447;-80
2022/10/28 01:22:52;;;;;;;12.10;5.83;;;;;;;12.28;100.00;101572.84;5043174;28;20434;-80
2022/10/28 01:25:23;;;;;;;14.43;6.40;;;;;;;14.28;100.00;101906.75;5048666;28;20523;-82
2022/10/28 01:27:52;;;;;;;11.97;7.23;;;;;;;14.29;100.00;101913.84;5048505;28;20442;-83
2022/10/28 01:30:23;;;;;;;12.57;6.60;;;;;;;13.16;100.00;101767.28;5045927;28;20470;-80
2022/10/28 01:32:48;;;;;;;9.23;6.30;;;;;;;14.35;100.00;101917.59;5048330;28;20501;-82
2022/10/28 01:35:36;;;;;;;12.50;6.50;;;;;;;14.31;100.00;101908.22;5044624;28;20474;-80
2022/10/28 01:38:22;;;;;;;9.90;6.57;;;;;;;12.91;100.00;101709.47;5049378;28;20205;-82
2022/10/28 01:43:34;;;;;;;12.50;6.47;;;;;;;13.19;100.00;101749.91;4997312;28;25149;-77
2022/10/28 01:46:06;;;;;;;9.03;5.90;;;;;;;12.93;100.00;101710.09;5004952;28;20450;-78
2022/10/28 01:48:56;;;;;;;12.20;6.50;;;;;;;13.82;100.00;101806.63;5009719;28;20546;-77
2022/10/28 01:51:32;;;;;;;10.03;5.60;;;;;;;13.73;100.00;101789.75;5019105;28;20463;-77
2022/10/28 01:54:02;;;;;;;12.50;6.60;;;;;;;12.81;100.00;101667.53;4997309;28;20448;-77
2022/10/28 01:56:35;;;;;;;10.70;6.10;;;;;;;12.36;100.00;101598.81;4995640;28;20480;-77
2022/10/28 01:59:02;;;;;;;9.07;6.67;;;;;;;13.16;100.00;101756.50;5002514;28;20516;-77
2022/10/28 02:01:29;;;;;;;6.57;5.53;;;;;;;13.26;100.00;101773.22;5004763;28;20949;-77
2022/10/28 02:03:56;;;;;;;8.40;5.83;;;;;;;12.87;100.00;101699.09;5006648;28;20431;-77
2022/10/28 02:06:26;;;;;;;9.23;6.80;;;;;;;13.02;100.00;101728.63;5006476;28;20433;-76
2022/10/28 02:08:59;;;;;;;10.60;6.47;;;;;;;12.99;100.00;101715.56;5005742;28;21090;-77
2022/10/28 02:11:35;;;;;;;9.33;6.60;;;;;;;12.95;100.00;101692.72;5007892;28;20440;-77
2022/10/28 02:14:12;;;;;;;8.27;6.93;;;;;;;12.10;100.00;101543.72;5005323;28;20431;-77
2022/10/28 02:16:55;;;;;;;8.23;6.07;;;;;;;14.33;100.00;101898.06;4997620;28;20432;-77
2022/10/28 02:19:29;;;;;;;7.87;6.37;;;;;;;14.33;100.00;101896.22;5006734;28;20412;-76
2022/10/28 02:22:01;;;;;;;12.80;8.03;;;;;;;14.35;100.00;101901.38;4999275;28;20471;-76
2022/10/28 02:24:45;;;;;;;14.30;7.30;;;;;;;12.27;100.00;101579.25;5000402;28;20433;-77
2022/10/28 02:27:38;;;;;;;14.60;6.60;;;;;;;13.08;100.00;101724.34;5003383;28;20444;-76
2022/10/28 02:30:09;;;;;;;11.57;6.90;;;;;;;13.63;100.00;101773.09;5003139;28;20506;-76
2022/10/28 02:32:39;;;;;;;10.10;6.70;;;;;;;13.48;100.00;101767.78;5002556;28;20472;-76
2022/10/28 02:35:11;;;;;;;8.57;6.40;;;;;;;13.02;100.00;101687.41;5000343;28;25138;-76
2022/10/28 02:37:40;;;;;;;8.90;6.10;;;;;;;12.54;100.00;101638.72;4998478;28;21042;-76
2022/10/28 02:40:11;;;;;;;11.03;7.03;;;;;;;12.14;100.00;101554.91;4999790;28;20435;-76
2022/10/28 02:42:43;;;;;;;7.73;6.20;;;;;;;13.49;100.00;101772.16;5010821;28;20468;-75
2022/10/28 02:45:14;;;;;;;12.03;6.47;;;;;;;12.96;100.00;101718.63;5019942;28;20613;-76
2022/10/28 02:47:44;;;;;;;11.87;7.17;;;;;;;13.00;100.00;101729.84;5019786;28;20453;-77
2022/10/28 02:50:16;;;;;;;8.03;7.20;;;;;;;12.16;100.00;101574.38;5020221;28;20458;-77
2022/10/28 02:52:47;;;;;;;10.73;6.93;;;;;;;13.00;100.00;101719.06;5002484;28;20521;-76
2022/10/28 02:55:13;;;;;;;14.93;7.17;;;;;;;12.08;100.00;101571.81;5019969;28;20448;-76
2022/10/28 02:57:43;;;;;;;9.40;6.80;;;;;;;12.99;100.00;101717.38;4999497;28;20452;-76
2022/10/28 03:00:13;;;;;;;11.70;6.97;;;;;;;12.39;100.00;101598.41;5018249;28;20274;-76
2022/10/28 03:02:38;;;;;;;9.90;6.90;;;;;;;13.03;100.00;101724.91;5016540;28;20455;-77
2022/10/28 03:05:05;;;;;;;11.33;7.00;;;;;;;13.53;100.00;101803.91;5017642;28;20450;-77
2022/10/28 03:07:30;;;;;;;9.30;6.87;;;;;;;12.10;100.00;101559.03;5023495;28;20189;-77
2022/10/28 03:09:56;;;;;;;9.20;6.33;;;;;;;12.57;100.00;101624.88;5018987;28;20447;-77
2022/10/28 03:12:21;;;;;;;13.23;6.10;;;;;;;13.02;100.00;101712.47;5018866;28;20274;-77
2022/10/28 03:14:46;;;;;;;13.40;7.00;;;;;;;12.50;100.00;101621.25;5020197;28;20554;-77
2022/10/28 03:17:12;;;;;;;8.20;5.33;;;;;;;13.46;100.00;101772.56;5016779;28;20811;-77
2022/10/28 03:19:38;;;;;;;13.13;7.07;;;;;;;13.18;100.00;101716.75;5020776;28;20203;-77
2022/10/28 03:22:03;;;;;;;10.50;6.90;;;;;;;13.53;100.00;101773.44;5019731;28;20208;-77
2022/10/28 03:24:28;;;;;;;13.50;6.30;;;;;;;13.04;100.00;101701.50;5023655;28;20665;-77
2022/10/28 03:26:54;;;;;;;8.40;6.47;;;;;;;13.95;100.00;101821.03;5023309;28;20196;-77
2022/10/28 03:29:20;;;;;;;12.50;6.83;;;;;;;12.33;100.00;101609.94;5017880;28;20207;-77
2022/10/28 03:31:45;;;;;;;10.23;6.47;;;;;;;12.80;100.00;101665.03;4999699;28;20212;-77
2022/10/28 03:34:11;;;;;;;8.63;6.83;;;;;;;12.05;100.00;101529.19;5000306;28;20189;-77
2022/10/28 03:36:36;;;;;;;8.83;5.50;;;;;;;11.79;100.00;101522.47;5018228;28;25135;-77
2022/10/28 03:39:02;;;;;;;15.40;6.60;;;;;;;12.59;100.00;101647.03;4998851;28;20187;-77
2022/10/28 03:41:27;;;;;;;8.60;6.23;;;;;;;12.97;100.00;101704.13;5018331;28;20208;-77
2022/10/28 03:43:52;;;;;;;11.63;8.07;;;;;;;12.49;100.00;101623.13;5018710;28;20643;-77
2022/10/28 03:46:18;;;;;;;11.87;7.23;;;;;;;12.11;100.00;101549.91;5015091;28;20196;-77
2022/10/28 03:48:43;;;;;;;12.00;7.40;;;;;;;13.22;100.00;101744.13;5001410;28;20188;-78
2022/10/28 03:51:09;;;;;;;14.53;8.30;;;;;;;11.86;100.00;101520.72;5018159;28;25127;-77
2022/10/28 03:53:34;;;;;;;9.63;6.13;;;;;;;13.02;100.00;101722.41;5001834;28;20690;-77
2022/10/28 03:56:01;;;;;;;11.00;6.80;;;;;;;13.84;100.00;101869.28;5005316;28;20195;-77
2022/10/28 03:58:27;;;;;;;8.70;6.13;;;;;;;11.81;100.00;101509.69;5014555;28;20711;-77
2022/10/28 04:00:53;;;;;;;8.97;6.40;;;;;;;12.38;100.00;101602.97;5010590;28;20692;-76
2022/10/28 04:03:20;;;;;;;9.20;6.57;;;;;;;13.59;100.00;101820.34;5001729;28;20442;-77
2022/10/28 04:05:49;;;;;;;10.80;7.03;;;;;;;12.59;100.00;101668.56;5017150;28;20442;-77
2022/10/28 04:08:16;;;;;;;8.80;6.87;;;;;;;13.02;100.00;101720.56;5021209;28;20510;-76
2022/10/28 04:10:42;;;;;;;10.63;6.43;;;;;;;13.73;100.00;101849.91;5020473;28;25124;-77
2022/10/28 04:13:08;;;;;;;9.00;6.23;;;;;;;13.28;100.00;101792.72;5000473;28;20483;-77
2022/10/28 04:15:34;;;;;;;12.87;5.97;;;;;;;12.07;100.00;101543.28;5019979;28;20447;-77
2022/10/28 04:17:59;;;;;;;8.90;5.23;;;;;;;13.26;100.00;101783.16;5016058;28;20184;-76
2022/10/28 04:20:26;;;;;;;6.87;5.13;;;;;;;13.76;100.00;101833.34;5018132;28;20493;-77
2022/10/28 04:22:53;;;;;;;7.37;5.10;;;;;;;12.56;100.00;101664.41;5018916;28;25075;-77
2022/10/28 04:25:19;;;;;;;7.53;5.70;;;;;;;11.93;100.00;101555.75;5016168;28;21034;-77
2022/10/28 04:27:45;;;;;;;9.73;6.33;;;;;;;12.29;100.00;101624.78;4995842;28;20437;-77
2022/10/28 04:30:11;;;;;;;8.97;5.80;;;;;;;13.49;100.00;101864.63;5020279;28;20882;-77
2022/10/28 04:32:37;;;;;;;7.53;5.60;;;;;;;13.51;100.00;101849.09;5000162;28;20227;-77
2022/10/28 04:35:03;;;;;;;7.77;6.30;;;;;;;11.66;100.00;101551.88;5016630;28;21136;-77
2022/10/28 04:37:29;;;;;;;9.33;6.50;;;;;;;11.96;100.00;101628.78;5020433;28;20189;-76
2022/10/28 04:39:54;;;;;;;5.83;5.00;;;;;;;12.68;100.00;101744.66;5015407;28;20447;-76
2022/10/28 04:42:19;;;;;;;8.53;6.10;;;;;;;12.27;100.00;101653.75;5016372;28;20720;-77
2022/10/28 04:44:45;;;;;;;8.30;6.00;;;;;;;12.42;100.00;101647.28;5019349;28;20197;-77
2022/10/28 04:47:10;;;;;;;6.33;5.13;;;;;;;11.27;100.00;101488.59;5018563;28;20186;-76
2022/10/28 04:49:36;;;;;;;7.30;5.30;;;;;;;11.29;100.00;101518.78;5020866;28;20644;-76
2022/10/28 04:52:01;;;;;;;7.70;5.40;;;;;;;13.29;100.00;101842.88;5002826;28;20216;-76
2022/10/28 04:54:26;;;;;;;6.93;5.80;;;;;;;11.28;100.00;101550.19;5026437;28;20189;-77
2022/10/28 04:56:53;;;;;;;8.20;5.60;;;;;;;13.18;100.00;101845.22;5025898;28;20196;-77
2022/10/28 04:59:19;;;;;;;7.90;5.37;;;;;;;11.90;100.00;101621.47;5020116;28;20696;-76
2022/10/28 05:01:44;;;;;;;7.33;5.73;;;;;;;12.13;100.00;101674.28;5018622;28;20465;-76
2022/10/28 05:04:10;;;;;;;10.40;5.80;;;;;;;12.66;100.00;101755.59;4999656;28;20629;-76
2022/10/28 05:06:35;;;;;;;9.37;6.00;;;;;;;12.74;100.00;101760.84;5019933;28;20641;-77
2022/10/28 05:09:00;;;;;;;6.90;6.20;;;;;;;11.83;100.00;101611.59;5002805;28;20270;-77
2022/10/28 05:11:26;;;;;;;10.00;5.43;;;;;;;11.87;100.00;101597.66;5000560;28;21017;-77
2022/10/28 05:13:54;;;;;;;10.13;6.00;;;;;;;11.40;100.00;101541.63;5024147;28;25156;-76
2022/10/28 05:16:20;;;;;;;7.20;5.57;;;;;;;11.47;100.00;101539.88;5017168;28;20650;-76
2022/10/28 05:18:45;;;;;;;8.20;5.57;;;;;;;12.96;100.00;101790.47;4999747;28;20461;-77
2022/10/28 05:21:11;;;;;;;10.10;6.00;;;;;;;12.50;100.00;101710.06;5021180;28;20208;-76
2022/10/28 05:23:36;;;;;;;8.40;5.90;;;;;;;12.16;100.00;101649.69;5007171;28;20192;-76
2022/10/28 05:26:02;;;;;;;10.17;6.83;;;;;;;11.85;100.00;101636.47;5025528;28;20642;-76
2022/10/28 05:28:27;;;;;;;10.60;5.87;;;;;;;11.61;100.00;101605.34;5024892;28;20188;-77
2022/10/28 05:30:53;;;;;;;7.73;5.53;;;;;;;12.77;100.00;101792.78;5024246;28;20571;-77
2022/10/28 05:33:18;;;;;;;9.97;6.53;;;;;;;11.24;100.00;101550.72;5017519;28;20250;-77
2022/10/28 05:35:44;;;;;;;9.50;5.90;;;;;;;12.02;100.00;101669.38;5019462;28;20192;-76
2022/10/28 05:38:09;;;;;;;8.30;6.30;;;;;;;11.94;100.00;101663.06;5007586;28;20224;-77
2022/10/28 05:40:35;;;;;;;12.03;5.40;;;;;;;12.21;100.00;101709.97;5028244;28;20192;-77
2022/10/28 05:43:01;;;;;;;9.17;6.37;;;;;;;12.33;100.00;101683.41;5025551;28;20248;-76
2022/10/28 05:45:27;;;;;;;7.90;5.87;;;;;;;11.83;100.00;101608.91;4991420;28;20184;-77
2022/10/28 05:47:53;;;;;;;11.83;6.37;;;;;;;11.58;100.00;101594.97;4997475;28;20476;-76
2022/10/28 05:50:19;;;;;;;9.20;6.70;;;;;;;11.34;100.00;101535.16;5002470;28;21030;-77
2022/10/28 05:52:49;;;;;;;10.50;6.10;;;;;;;12.07;100.00;101680.41;5025695;28;20217;-76
2022/10/28 05:55:18;;;;;;;10.33;6.30;;;;;;;12.21;100.00;101668.78;5026373;28;20438;-76
2022/10/28 05:57:47;;;;;;;6.20;5.60;;;;;;;11.91;100.00;101633.88;5005149;28;20442;-76
2022/10/28 06:00:14;;;;;;;10.83;5.30;;;;;;;11.33;100.00;101495.88;5027060;28;20442;-76
2022/10/28 06:02:40;;;;;;;7.03;5.20;;;;;;;12.48;100.00;101669.91;4996984;28;20463;-76
2022/10/28 06:05:06;;;;;;;6.43;5.33;;;;;;;12.81;100.00;101748.28;5022408;28;20475;-76
2022/10/28 06:07:33;;;;;;;8.67;6.13;;;;;;;11.57;100.00;101551.16;5023814;28;20847;-76
2022/10/28 06:09:59;;;;;;;9.87;5.50;;;;;;;11.00;100.00;101476.69;5007733;28;20981;-77
2022/10/28 06:12:25;;;;;;;8.40;5.37;;;;;;;11.94;100.00;101611.16;5002160;28;20971;-76
2022/10/28 06:14:50;;;;;;;8.53;5.07;;;;;;;11.58;100.00;101563.56;5021055;28;20192;-76
2022/10/28 06:17:15;;;;;;;10.10;6.17;;;;;;;11.80;100.00;101598.53;5022941;28;20192;-76
2022/10/28 06:19:41;;;;;;;8.40;5.80;;;;;;;11.07;100.00;101478.41;5021634;28;20195;-75
2022/10/28 06:22:06;;;;;;;12.50;5.50;;;;;;;12.34;100.00;101676.16;5018507;28;20236;-76
2022/10/28 06:24:32;;;;;;;9.53;5.70;;;;;;;11.56;100.00;101570.97;5017841;28;20200;-76
2022/10/28 06:26:57;;;;;;;7.60;5.17;;;;;;;13.03;100.00;101811.09;5020349;28;20195;-75
2022/10/28 06:29:23;;;;;;;7.30;5.53;;;;;;;11.62;100.00;101580.13;5022382;28;20185;-76
2022/10/28 06:31:48;;;;;;;7.73;4.90;;;;;;;12.01;100.00;101630.09;5022000;28;20572;-76
2022/10/28 06:34:14;;;;;;;8.10;5.77;;;;;;;11.74;100.00;101590.25;5006931;28;20192;-76
2022/10/28 06:36:39;;;;;;;7.93;5.27;;;;;;;12.47;100.00;101719.38;5015250;28;20215;-76
2022/10/28 06:39:05;;;;;;;7.03;5.60;;;;;;;12.35;100.00;101662.53;5023175;28;20184;-76
2022/10/28 06:41:30;;;;;;;7.87;5.50;;;;;;;12.38;100.00;101670.22;5023773;28;20217;-78
2022/10/28 06:43:56;;;;;;;10.93;5.40;;;;;;;12.47;100.00;101668.25;5025398;28;20199;-77
2022/10/28 06:46:21;;;;;;;8.27;5.60;;;;;;;12.33;100.00;101653.00;5006639;28;20184;-76
2022/10/28 06:48:47;;;;;;;8.77;5.43;;;;;;;11.25;100.00;101451.19;5010431;28;20478;-76
2022/10/28 06:51:12;;;;;;;8.90;5.43;;;;;;;11.82;100.00;101565.09;5019493;28;20487;-76
2022/10/28 06:53:38;;;;;;;7.00;5.73;;;;;;;12.06;100.00;101611.50;5002737;28;20532;-76
2022/10/28 06:56:04;;;;;;;6.33;5.00;;;;;;;11.15;100.00;101439.06;5004198;28;20435;-76
2022/10/28 06:58:29;;;;;;;9.60;5.10;;;;;;;11.81;100.00;101507.00;5014847;28;20239;-76
2022/10/28 07:00:55;;;;;;;12.43;5.80;;;;;;;12.31;100.00;101596.69;4998879;28;20206;-76
2022/10/28 07:03:20;;;;;;;10.40;6.17;;;;;;;11.74;100.00;101508.75;5007006;28;20176;-76
2022/10/28 07:05:48;;;;;;;9.20;5.20;;;;;;;12.76;100.00;101644.94;5002779;28;20184;-76
2022/10/28 07:08:14;;;;;;;9.83;5.87;;;;;;;11.83;100.00;101490.66;5007358;28;20565;-76
2022/10/28 07:10:40;;;;;;;8.00;5.60;;;;;;;11.53;100.00;101448.59;5002303;28;20449;-76
2022/10/28 07:13:05;;;;;;;9.50;5.10;;;;;;;12.46;100.00;101602.00;5020004;28;20224;-76
2022/10/28 07:15:31;;;;;;;7.27;5.27;;;;;;;11.92;100.00;101505.69;5025679;28;20861;-76
2022/10/28 07:17:58;;;;;;;7.50;5.20;;;;;;;12.39;100.00;101558.06;5022859;28;20190;-76
2022/10/28 07:20:26;;;;;;;10.40;5.57;;;;;;;13.68;100.00;101765.25;5008655;28;20648;-76
2022/10/28 07:22:59;;;;;;;8.63;5.47;;;;;;;13.35;100.00;101690.38;4998114;28;20574;-76
2022/10/28 07:25:26;;;;;;;9.63;4.93;;;;;;;13.40;100.00;101676.34;5021556;28;25109;-76
2022/10/28 07:27:51;;;;;;;7.97;4.70;;;;;;;13.70;100.00;101715.50;5007485;28;20442;-75
2022/10/28 07:30:17;;;;;;;6.83;4.30;;;;;;;13.45;100.00;101695.41;5020664;28;20449;-77
2022/10/28 07:32:42;;;;;;;9.90;5.23;;;;;;;12.99;100.00;101586.28;5022827;28;20224;-76
2022/10/28 07:35:08;;;;;;;11.53;5.40;;;;;;;12.61;100.00;101545.41;5005220;28;20618;-77
2022/10/28 07:37:33;;;;;;;12.67;5.60;;;;;;;13.25;100.00;101623.38;5026897;28;20177;-76
2022/10/28 07:39:59;;;;;;;9.37;5.40;;;;;;;12.84;100.00;101562.16;5026116;28;20615;-76
2022/10/28 07:42:24;;;;;;;9.80;5.17;;;;;;;12.96;100.00;101537.38;5038702;22;20222;-78
2022/10/28 07:44:49;;;;;;;11.27;6.67;;;;;;;13.31;100.00;101598.34;5042067;28;20212;-78
2022/10/28 07:47:16;;;;;;;11.43;6.23;;;;;;;12.69;100.00;101485.22;5042440;28;20188;-79
2022/10/28 07:49:42;;;;;;;12.70;6.53;;;;;;;13.64;100.00;101656.97;5034011;28;20190;-79
2022/10/28 07:54:36;;;;;;;13.30;5.73;;;;;;;14.27;100.00;101745.06;5028916;22;20495;-79
2022/10/28 07:57:01;;;;;;;8.10;5.37;;;;;;;14.26;100.00;101709.13;5020208;28;20446;-77
2022/10/28 07:59:27;;;;;;;11.43;5.90;;;;;;;12.88;100.00;101471.88;5034630;28;20207;-77
2022/10/28 08:01:53;;;;;;;7.80;5.37;;;;;;;14.79;100.00;101795.72;5042468;28;20179;-79
2022/10/28 08:04:19;;;;;;;14.40;5.93;;;;;;;14.67;100.00;101768.47;5024962;28;20534;-79
2022/10/28 08:06:44;;;;;;;11.53;5.70;;;;;;;14.69;100.00;101752.06;5029715;28;20422;-80
2022/10/28 08:09:10;;;;;;;7.80;5.37;;;;;;;14.72;100.00;101756.22;5030252;28;20214;-78
2022/10/28 08:11:35;;;;;;;13.53;6.03;;;;;;;14.73;100.00;101749.81;5042932;28;20175;-80
2022/10/28 08:14:01;;;;;;;12.70;6.57;;;;;;;15.13;100.00;101810.97;5030672;28;20188;-79
2022/10/28 08:16:27;;;;;;;13.27;6.60;;;;;;;15.15;100.00;101795.38;5040409;28;20193;-82
2022/10/28 08:18:55;;;;;;;20.77;6.57;;;;;;;14.94;100.00;101740.69;5022340;28;20477;-81
2022/10/28 08:21:21;;;;;;;13.87;6.10;;;;;;;15.02;100.00;101749.44;5019395;28;20442;-78
2022/10/28 08:23:47;;;;;;;12.40;5.93;;;;;;;14.98;100.00;101739.25;5023031;28;20434;-79
2022/10/28 08:26:15;;;;;;;9.27;5.30;;;;;;;15.46;100.00;101785.00;5045025;28;20435;-79
2022/10/28 08:28:41;;;;;;;12.60;5.73;;;;;;;15.37;100.00;101754.66;5042225;28;20195;-77
2022/10/28 08:31:11;;;;;;;14.37;5.77;;;;;;;15.48;100.00;101769.44;5014762;28;20466;-76
2022/10/28 08:33:39;;;;;;;11.90;6.60;;;;;;;15.59;100.00;101779.59;5040003;28;21582;-76
2022/10/28 08:36:05;;;;;;;12.13;6.03;;;;;;;15.44;100.00;101744.66;5040442;28;20442;-77
2022/10/28 08:38:31;;;;;;;16.17;6.90;;;;;;;15.51;100.00;101747.38;5044148;28;23438;-76
2022/10/28 08:41:07;;;;;;;11.03;5.83;;;;;;;15.78;100.00;101775.25;5032047;28;20961;-76
2022/10/28 08:43:59;;;;;;;10.33;6.23;;;;;;;15.82;100.00;101769.22;5033198;28;20196;-77
2022/10/28 08:46:50;;;;;;;11.07;6.73;;;;;;;15.71;100.00;101756.31;5043336;28;20585;-77
2022/10/28 08:49:20;;;;;;;13.10;5.37;;;;;;;15.94;100.00;101772.09;5040734;28;20585;-77
2022/10/28 08:52:17;;;;;;;18.10;7.20;;;;;;;15.96;100.00;101769.16;5036152;28;20444;-77
2022/10/28 08:54:50;;;;;;;11.97;7.00;;;;;;;15.99;100.00;101760.63;4973490;28;20458;-77
2022/10/28 08:57:20;;;;;;;17.87;6.93;;;;;;;16.02;100.00;101750.19;5017114;28;20439;-77
2022/10/28 08:59:48;;;;;;;11.00;6.07;;;;;;;16.11;100.00;101760.78;5046660;28;20458;-77
2022/10/28 09:02:21;;;;;;;8.40;5.60;;;;;;;16.18;100.00;101767.84;5025363;28;20435;-76
2022/10/28 09:04:52;;;;;;;13.53;6.77;;;;;;;15.93;100.00;101705.47;5045720;28;20448;-79
2022/10/28 09:07:20;;;;;;;16.43;6.67;;;;;;;16.30;100.00;101754.50;5021935;28;20989;-80
2022/10/28 09:09:47;;;;;;;10.47;6.23;;;;;;;16.19;100.00;101725.38;5032284;28;20537;-77
2022/10/28 09:12:22;;;;;;;12.33;6.70;;;;;;;16.51;100.00;101750.63;5030299;28;20462;-78
2022/10/28 09:15:23;;;;;;;12.43;6.30;;;;;;;16.54;100.00;101733.13;5050379;28;20495;-78
2022/10/28 09:17:55;;;;;;;14.47;6.10;;;;;;;16.10;100.00;101672.53;5004448;28;20450;-77
2022/10/28 09:20:38;;;;;;;10.80;5.77;;;;;;;16.50;100.00;101711.91;5047589;28;20501;-78
2022/10/28 09:23:17;;;;;;;13.13;5.47;;;;;;;16.24;100.00;101660.59;5028843;28;20422;-78
2022/10/28 09:26:05;;;;;;;11.90;6.83;;;;;;;16.63;100.00;101753.50;5028505;28;20434;-77
2022/10/28 09:28:45;;;;;;;9.73;5.50;;;;;;;16.72;100.00;101750.34;5048686;28;20461;-77
2022/10/28 09:31:15;;;;;;;13.30;6.10;;;;;;;16.50;100.00;101724.63;5045541;28;20466;-77
2022/10/28 09:34:02;;;;;;;10.13;6.13;;;;;;;16.66;100.00;101750.34;5043291;28;20526;-77
2022/10/28 09:36:40;;;;;;;11.90;6.60;;;;;;;16.66;100.00;101755.75;5027443;28;21011;-78
2022/10/28 09:39:15;;;;;;;10.43;5.90;;;;;;;16.63;100.00;101748.91;5046411;28;20849;-77
2022/10/28 09:41:42;;;;;;;11.53;6.60;;;;;;;16.68;100.00;101737.44;5045572;28;20819;-77
2022/10/28 09:44:29;;;;;;;17.90;7.03;;;;;;;16.60;100.00;101748.50;5029318;28;20956;-77
2022/10/28 09:46:59;;;;;;;15.63;6.80;;;;;;;16.65;100.00;101751.41;5046334;28;20528;-77
2022/10/28 09:49:28;;;;;;;15.90;7.57;;;;;;;16.63;100.00;101745.38;5031213;28;20502;-77
2022/10/28 09:52:04;;;;;;;13.87;7.30;;;;;;;16.63;100.00;101738.06;5025471;28;20446;-76
2022/10/28 09:54:41;;;;;;;13.10;6.53;;;;;;;16.79;100.00;101736.78;5024890;28;20473;-77
2022/10/28 09:57:07;;;;;;;15.23;6.10;;;;;;;16.67;100.00;101719.53;5027002;28;20442;-77
2022/10/28 09:59:33;;;;;;;10.93;6.00;;;;;;;16.27;100.00;101649.34;5024522;28;20469;-77
2022/10/28 10:01:59;;;;;;;10.30;6.40;;;;;;;16.94;100.00;101739.16;5029300;28;20180;-77
2022/10/28 10:04:26;;;;;;;15.00;6.90;;;;;;;16.95;100.00;101735.41;5016245;28;20822;-77
2022/10/28 10:06:56;;;;;;;12.07;6.30;;;;;;;16.56;100.00;101660.63;5026675;28;20207;-78
2022/10/28 10:09:26;;;;;;;9.93;5.47;;;;;;;17.31;100.00;101747.44;5020090;28;21043;-77
2022/10/28 10:11:56;;;;;;;16.37;7.60;;;;;;;17.19;100.00;101703.97;5045611;28;20445;-78
2022/10/28 10:14:28;;;;;;;15.00;6.07;;;;;;;16.90;100.00;101675.63;5044623;28;20446;-77
2022/10/28 10:17:05;;;;;;;13.53;5.90;;;;;;;17.16;100.00;101716.06;5023900;28;20924;-78
2022/10/28 10:20:00;;;;;;;18.10;7.13;;;;;;;17.29;100.00;101734.09;5036415;28;20520;-78
2022/10/28 10:22:31;;;;;;;12.37;6.00;;;;;;;17.15;100.00;101709.00;5044853;28;20433;-78
2022/10/28 10:24:57;;;;;;;11.30;6.50;;;;;;;16.78;100.00;101652.97;5046842;28;20524;-78
2022/10/28 10:27:25;;;;;;;17.30;7.07;;;;;;;16.62;100.00;101622.66;5030501;28;20418;-78
2022/10/28 10:29:51;;;;;;;15.57;6.47;;;;;;;17.33;100.00;101724.47;5046053;28;20295;-78
2022/10/28 10:32:23;;;;;;;13.07;5.70;;;;;;;17.37;100.00;101720.25;5044756;28;20833;-77
2022/10/28 10:34:55;;;;;;;18.17;6.40;;;;;;;17.35;100.00;101719.66;5047354;28;20431;-78
2022/10/28 10:37:21;;;;;;;12.13;5.67;;;;;;;17.51;100.00;101723.69;5043095;28;20439;-79
2022/10/28 10:40:16;;;;;;;9.97;6.03;;;;;;;17.60;100.00;101724.22;5032654;28;20467;-78
2022/10/28 10:42:41;;;;;;;17.03;6.13;;;;;;;17.63;100.00;101729.19;5047570;28;20477;-78
2022/10/28 10:45:13;;;;;;;13.17;6.67;;;;;;;17.78;100.00;101737.84;5045471;28;20470;-78
2022/10/28 10:47:38;;;;;;;10.77;5.50;;;;;;;17.74;100.00;101704.03;5047033;28;20831;-79
2022/10/28 10:50:44;;;;;;;8.90;5.10;;;;;;;18.00;100.00;101704.84;5043479;28;20561;-76
2022/10/28 10:53:38;;;;;;;14.47;5.80;;;;;;;18.17;100.00;101707.75;4993057;28;20213;-75
2022/10/28 10:56:09;;;;;;;14.40;6.00;;;;;;;17.65;100.00;101670.13;4961830;28;20459;-75
2022/10/28 10:58:46;;;;;;;11.90;6.13;;;;;;;17.91;100.00;101717.88;5025954;28;25101;-75
2022/10/28 11:01:19;;;;;;;19.30;6.20;;;;;;;17.89;100.00;101711.00;5043542;28;20527;-75
2022/10/28 11:03:52;;;;;;;10.23;5.57;;;;;;;16.90;100.00;101559.94;5044781;28;20448;-76
2022/10/28 11:06:26;;;;;;;12.23;5.80;;;;;;;17.89;100.00;101689.31;5044582;28;20434;-75
2022/10/28 11:09:16;;;;;;;9.87;5.60;;;;;;;18.18;100.00;101702.09;5025159;28;20446;-76
2022/10/28 11:11:41;;;;;;;8.60;5.20;;;;;;;18.37;100.00;101699.34;5030113;28;20426;-78
2022/10/28 11:14:12;;;;;;;14.00;6.87;;;;;;;18.21;100.00;101690.78;5020655;28;20532;-76
2022/10/28 11:16:52;;;;;;;11.40;5.67;;;;;;;18.15;100.00;101696.28;5024692;28;20328;-75
2022/10/28 11:19:29;;;;;;;13.07;4.90;;;;;;;18.21;100.00;101676.38;5043249;28;20438;-78
2022/10/28 11:22:55;;;;;;;10.60;5.70;;;;;;;18.09;100.00;101668.16;5040659;28;20445;-77
2022/10/28 11:25:33;;;;;;;18.57;6.10;;;;;;;18.22;100.00;101670.69;4997245;28;21716;-76
2022/10/28 11:28:29;;;;;;;13.80;5.77;;;;;;;18.38;100.00;101684.72;5043835;28;20522;-76
2022/10/28 11:31:15;;;;;;;11.23;5.67;;;;;;;18.75;100.00;101677.31;5040696;28;25153;-76